WetterOnline ( https://www.wetteronline.de )

Wetter aktuell Hohenthurm

Aktuelles Wetter: Leipzig/Halle (136m)

6-stündlich | Neueste Meldungen
Ortszeit Temperatur Wetter
Do, 26.11. 7:00 0.9° C wolkig
Do, 26.11. 1:00 1.4° C wolkenlos
Mi, 25.11. 19:00 2.9° C wolkenlos
Mi, 25.11. 13:00 6.1° C leicht bewölkt
Mi, 25.11. 7:00 1.8° C bedeckt
Mi, 25.11. 1:00 0.6° C bedeckt
Di, 24.11. 19:00 2.3° C wolkenlos
Di, 24.11. 13:00 6.4° C leicht bewölkt
Ortszeit Temperatur Wetter
Do, 26.11. 8:20 2° C bewölkt
Do, 26.11. 8:10 1.9° C bedeckt
Do, 26.11. 8:00 1.6° C bewölkt
Do, 26.11. 7:50 1.6° C bewölkt
Do, 26.11. 7:40 1.3° C wolkig
Do, 26.11. 7:30 1.1° C leicht bewölkt
Do, 26.11. 7:00 0.9° C wolkig
Do, 26.11. 6:30 1.0° C bedeckt
Do, 26.11. 6:00 1.2° C wolkig
Do, 26.11. 5:30 0.4° C fast wolkenlos
Do, 26.11. 5:00 0.9° C wolkenlos
Ortszeit Relative Feuchte Sichtweite
Do, 26.11. 7:00 92% 12 km
Do, 26.11. 1:00 89% 25 km
Mi, 25.11. 19:00 85% 40 km
Mi, 25.11. 13:00 74% 45 km
Mi, 25.11. 7:00 91% 18 km
Mi, 25.11. 1:00 96% 12 km
Di, 24.11. 19:00 90% 35 km
Di, 24.11. 13:00 75% 35 km
Ortszeit Relative Feuchte Sichtweite
Do, 26.11. 8:20 93% >10 km
Do, 26.11. 8:10 90% -
Do, 26.11. 8:00 90% 12 km
Do, 26.11. 7:50 90% -
Do, 26.11. 7:40 91% -
Do, 26.11. 7:30 90% 15 km
Do, 26.11. 7:00 92% 12 km
Do, 26.11. 6:30 92% 12 km
Do, 26.11. 6:00 91% 15 km
Do, 26.11. 5:30 92% 18 km
Do, 26.11. 5:00 90% 20 km
Ortszeit Niederschlagsmenge Niederschlagsart
Do, 26.11. 7:00 0.0 l/m2 in 12 Std. -
Do, 26.11. 1:00 0.0 l/m2 in 6 Std. -
Mi, 25.11. 19:00 0.0 l/m2 in 12 Std. -
Mi, 25.11. 13:00 0.0 l/m2 in 6 Std. -
Mi, 25.11. 7:00 0.0 l/m2 in 12 Std. -
Mi, 25.11. 1:00 0.0 l/m2 in 6 Std. -
Di, 24.11. 19:00 0.0 l/m2 in 12 Std. -
Di, 24.11. 13:00 0.0 l/m2 in 6 Std. -
Ortszeit Niederschlagsmenge Niederschlagsart
Do, 26.11. 8:20 keine Meldung -
Do, 26.11. 8:10 keine Meldung -
Do, 26.11. 8:00 0.0 l/m2 in 1 Std. -
Do, 26.11. 7:50 keine Meldung -
Do, 26.11. 7:40 keine Meldung -
Do, 26.11. 7:30 0.0 l/m2 in 1 Std. -
Do, 26.11. 7:00 0.0 l/m2 in 1 Std. -
Do, 26.11. 6:30 0.0 l/m2 in 1 Std. -
Do, 26.11. 6:00 0.0 l/m2 in 1 Std. -
Do, 26.11. 5:30 0.0 l/m2 in 1 Std. -
Do, 26.11. 5:00 0.0 l/m2 in 1 Std. -
Ortszeit Stärke Spitze Richtung
km/h Bft. km/h Grad Sektor
Do, 26.11. 7:00 18 3 32 210° SW
Do, 26.11. 1:00 20 4 30 210° SW
Mi, 25.11. 19:00 18 3 29 190° S
Mi, 25.11. 13:00 24 4 31 220° SW
Mi, 25.11. 7:00 13 3 30 190° S
Mi, 25.11. 1:00 14 3 22 200° S
Di, 24.11. 19:00 15 3 30 200° S
Di, 24.11. 13:00 22 4 30 230° SW
Ortszeit Stärke Spitze Richtung
km/h Bft. km/h Grad Sektor
Do, 26.11. 8:20 17 3 - 200° S
Do, 26.11. 8:10 18 3 - 210° SW
Do, 26.11. 8:00 18 3 29 200° S
Do, 26.11. 7:50 18 3 - 200° S
Do, 26.11. 7:40 17 3 - 210° SW
Do, 26.11. 7:30 20 4 28 210° SW
Do, 26.11. 7:00 18 3 29 210° SW
Do, 26.11. 6:30 17 3 28 210° SW
Do, 26.11. 6:00 22 4 29 220° SW
Do, 26.11. 5:30 17 3 26 230° SW
Do, 26.11. 5:00 24 4 33 220° SW
Ortszeit Untergrenze Bedeckung Gattung
total tief tief mittel hoch
Do, 26.11. 7:00 210 m 5/8 5/8 St - -
Do, 26.11. 1:00 - 0/8 0/8 - - -
Mi, 25.11. 19:00 - 0/8 0/8 - - -
Mi, 25.11. 13:00 9000 m 3/8 0/8 - - Ci
Mi, 25.11. 7:00 270 m 8/8 7/8 St - -
Mi, 25.11. 1:00 210 m 8/8 8/8 St - -
Di, 24.11. 19:00 - 0/8 0/8 - - -
Di, 24.11. 13:00 7800 m 4/8 0/8 - - Ci
Ortszeit Bedeckungsgrad in Achtel und Wolkenuntergrenze
Do, 26.11. 8:20 5-7(210m)
Do, 26.11. 8:10 8(210m) 8(870m)
Do, 26.11. 8:00 5(180m) 4(900m)
Do, 26.11. 7:50 5(180m) 7(870m) 7(6300m)
Do, 26.11. 7:40 2(210m) 6(6300m) 7(9000m)
Do, 26.11. 7:30 3(180m) 4(6300m) 5(9000m)
Do, 26.11. 7:00 5(210m) 5(6600m)
Do, 26.11. 6:30 8(210m)
Do, 26.11. 6:00 6(240m)
Do, 26.11. 5:30 1(210m)
Do, 26.11. 5:00 keine Wolken
Ortszeit Luftdruck NN (hPa) Tendenz (hPa in 3 Std.)
Do, 26.11. 7:00 1022 + 0,2
Do, 26.11. 1:00 1022 + 0,6
Mi, 25.11. 19:00 1020 + 0,4
Mi, 25.11. 13:00 1020 - 0,7
Mi, 25.11. 7:00 1021 - 0,5
Mi, 25.11. 1:00 1023 - 1,1
Di, 24.11. 19:00 1024 - 0,6
Di, 24.11. 13:00 1026 - 1,5
Ortszeit Luftdruck NN (hPa) Tendenz (hPa in 3 Std.)
Do, 26.11. 8:20 1021 keine Meldung
Do, 26.11. 8:10 1022 keine Meldung
Do, 26.11. 8:00 1022 + 0,3
Do, 26.11. 7:50 1022 keine Meldung
Do, 26.11. 7:40 1022 keine Meldung
Do, 26.11. 7:30 1022 + 0,1
Do, 26.11. 7:00 1022 + 0,2
Do, 26.11. 6:30 1022 + 0,1
Do, 26.11. 6:00 1022 + 0,3
Do, 26.11. 5:30 1022 + 0,3
Do, 26.11. 5:00 1022 + 0,1
Ortszeit Schneehöhe (cm)
Do, 26.11. 7:00 0
Do, 26.11. 1:00 0
Mi, 25.11. 19:00 0
Mi, 25.11. 13:00 0
Mi, 25.11. 7:00 0
Mi, 25.11. 1:00 0
Di, 24.11. 19:00 0
Di, 24.11. 13:00 0
Ortszeit Schneehöhe (cm)
Do, 26.11. 8:20 -
Do, 26.11. 8:10 0
Do, 26.11. 8:00 0
Do, 26.11. 7:50 0
Do, 26.11. 7:40 0
Do, 26.11. 7:30 0
Do, 26.11. 7:00 0
Do, 26.11. 6:30 0
Do, 26.11. 6:00 0
Do, 26.11. 5:30 0
Do, 26.11. 5:00 0
Link zu dieser Seite / Seite empfehlen

Das Wetter in ...